Arnold Bay, Vermont
Current Conditions -  °F | °C
As of 7:55 AM on Wednesday 22 Oct 2014 (Local Time) from K6B0 Reporting Station
Haze Haze  
Wind Chill: 42°   Ceiling: 300
Heat Index: 46°   Visibility: 5mi
Dew Point: 46°   Wind: 7mph
Humidity: 100%   Direction: 360°N
Pressure: 30.13"   Gusts: NA
Location:  44.0804°N, 73.3324°W
Report Text: K6B0 221155Z AUTO 36006KT 5SM BR OVC003 08/08 A3013 RMK AO2 70007 T00780078 10085 20076
Loading
Personal Weather Stations






























Interactive Weather Map
Tropical Storm Tracking
New forecast layout! Learn more

10-Day Weather Forecast

Advertisements
Track Severe Weather on mobile